N678MM KGJT-KSAN
Flight info
| Callsign | N678MM |
|---|---|
| Flight time | 1h 36m |
| Altitude | 40000 |
| Route | KRINA TTRUE LUCKI1 |
| Aircraft | B737/M-SDE2E3FGHIRWXY/LB1 |
Departure
| Time | 2026-04-25 01:54 |
|---|---|
| Airport | Grand Junction Regional Airport (KGJT) |
Arrival
| Time | 2026-04-25 03:31 |
|---|---|
| Airport | San Diego International Airport (KSAN) |
| Time | Latitude | Longitude | Altitude | Speed | Heading |
|---|---|---|---|---|---|
| 2026-04-25 01:19 | 39.12084 | -108.52263 | 4854 ft | 0 kts | 307° |
| 2026-04-25 01:51 | 39.12089 | -108.52269 | 4854 ft | 3 kts | 326° |
| 2026-04-25 01:51 | 39.12127 | -108.52262 | 4855 ft | 8 kts | 39° |
| 2026-04-25 01:51 | 39.12127 | -108.52182 | 4857 ft | 11 kts | 121° |
| 2026-04-25 01:51 | 39.12075 | -108.52089 | 4857 ft | 14 kts | 124° |
| 2026-04-25 01:52 | 39.12011 | -108.51973 | 4857 ft | 17 kts | 125° |
| 2026-04-25 01:52 | 39.11934 | -108.51838 | 4859 ft | 20 kts | 127° |
| 2026-04-25 01:52 | 39.11851 | -108.51685 | 4861 ft | 21 kts | 128° |
| 2026-04-25 01:52 | 39.11800 | -108.51550 | 4864 ft | 0 kts | 75° |
| 2026-04-25 01:53 | 39.11801 | -108.51549 | 4864 ft | 0 kts | 75° |
| 2026-04-25 01:53 | 39.11809 | -108.51525 | 4863 ft | 7 kts | 61° |
| 2026-04-25 01:53 | 39.11838 | -108.51462 | 4863 ft | 6 kts | 57° |
| 2026-04-25 01:53 | 39.11871 | -108.51479 | 4863 ft | 10 kts | 306° |
| 2026-04-25 01:54 | 39.12047 | -108.51798 | 4858 ft | 84 kts | 305° |
| 2026-04-25 01:54 | 39.12529 | -108.52672 | 4847 ft | 153 kts | 306° |
| 2026-04-25 01:54 | 39.13220 | -108.53973 | 5069 ft | 190 kts | 305° |
| 2026-04-25 01:54 | 39.13928 | -108.55387 | 6067 ft | 183 kts | 304° |
| 2026-04-25 01:55 | 39.14576 | -108.56795 | 6986 ft | 184 kts | 305° |
| 2026-04-25 01:55 | 39.15251 | -108.58231 | 7735 ft | 195 kts | 305° |
| 2026-04-25 01:55 | 39.16024 | -108.59843 | 8110 ft | 229 kts | 305° |
| 2026-04-25 01:55 | 39.16941 | -108.61714 | 8431 ft | 264 kts | 305° |
| 2026-04-25 01:56 | 39.17786 | -108.63931 | 8833 ft | 295 kts | 282° |
| 2026-04-25 01:56 | 39.17865 | -108.66605 | 9785 ft | 303 kts | 270° |
| 2026-04-25 01:56 | 39.17805 | -108.69340 | 10797 ft | 310 kts | 269° |
| 2026-04-25 01:56 | 39.17519 | -108.72196 | 11190 ft | 339 kts | 250° |
| 2026-04-25 01:57 | 39.14359 | -108.77230 | 12086 ft | 380 kts | 222° |
| 2026-04-25 01:57 | 39.12393 | -108.79550 | 12972 ft | 385 kts | 221° |
| 2026-04-25 01:57 | 39.10400 | -108.81896 | 13903 ft | 389 kts | 222° |
| 2026-04-25 01:58 | 39.08410 | -108.84289 | 14785 ft | 395 kts | 223° |
| 2026-04-25 01:58 | 39.06407 | -108.86742 | 15663 ft | 400 kts | 223° |
| 2026-04-25 01:58 | 39.05074 | -108.88394 | 16250 ft | 403 kts | 223° |
| 2026-04-25 01:58 | 39.03060 | -108.90919 | 17096 ft | 407 kts | 224° |
| 2026-04-25 01:59 | 39.01030 | -108.93493 | 17896 ft | 412 kts | 224° |
| 2026-04-25 01:59 | 38.98980 | -108.96113 | 18670 ft | 417 kts | 224° |
| 2026-04-25 01:59 | 38.96288 | -108.99566 | 20425 ft | 395 kts | 227° |
| 2026-04-25 01:59 | 38.94392 | -109.01996 | 22142 ft | 378 kts | 228° |
| 2026-04-25 02:00 | 38.93136 | -109.03609 | 22791 ft | 379 kts | 228° |
| 2026-04-25 02:00 | 38.91247 | -109.06042 | 23224 ft | 391 kts | 228° |
| 2026-04-25 02:00 | 38.89307 | -109.08539 | 23738 ft | 399 kts | 228° |
| 2026-04-25 02:00 | 38.87335 | -109.11072 | 24381 ft | 402 kts | 228° |
| 2026-04-25 02:01 | 38.85357 | -109.13606 | 25118 ft | 403 kts | 228° |
| 2026-04-25 02:01 | 38.83369 | -109.16148 | 25809 ft | 404 kts | 229° |
| 2026-04-25 02:01 | 38.81378 | -109.18692 | 26414 ft | 406 kts | 229° |
| 2026-04-25 02:01 | 38.79393 | -109.21228 | 26946 ft | 409 kts | 229° |
| 2026-04-25 02:02 | 38.77373 | -109.23809 | 27477 ft | 411 kts | 229° |
| 2026-04-25 02:02 | 38.75342 | -109.26400 | 27981 ft | 414 kts | 229° |
| 2026-04-25 02:02 | 38.73292 | -109.29013 | 28487 ft | 415 kts | 229° |
| 2026-04-25 02:02 | 38.71240 | -109.31629 | 28968 ft | 417 kts | 229° |
| 2026-04-25 02:03 | 38.69173 | -109.34258 | 29394 ft | 420 kts | 229° |
| 2026-04-25 02:03 | 38.67096 | -109.36897 | 29811 ft | 421 kts | 229° |
| 2026-04-25 02:03 | 38.65016 | -109.39537 | 30298 ft | 420 kts | 229° |
| 2026-04-25 02:03 | 38.62949 | -109.42157 | 30868 ft | 416 kts | 229° |
| 2026-04-25 02:04 | 38.60903 | -109.44759 | 31447 ft | 413 kts | 230° |
| 2026-04-25 02:04 | 38.58896 | -109.47301 | 31969 ft | 410 kts | 230° |
| 2026-04-25 02:04 | 38.56873 | -109.49858 | 32450 ft | 408 kts | 230° |
| 2026-04-25 02:04 | 38.54858 | -109.52401 | 32940 ft | 406 kts | 230° |
| 2026-04-25 02:05 | 38.52854 | -109.54931 | 33397 ft | 404 kts | 230° |
| 2026-04-25 02:05 | 38.50864 | -109.57443 | 33878 ft | 401 kts | 230° |
| 2026-04-25 02:05 | 38.48885 | -109.59940 | 34314 ft | 399 kts | 230° |
| 2026-04-25 02:05 | 38.46911 | -109.62430 | 34665 ft | 399 kts | 230° |
| 2026-04-25 02:06 | 38.44931 | -109.64926 | 34909 ft | 401 kts | 230° |
| 2026-04-25 02:06 | 38.42946 | -109.67426 | 35233 ft | 401 kts | 230° |
| 2026-04-25 02:06 | 38.40967 | -109.69913 | 35573 ft | 400 kts | 230° |
| 2026-04-25 02:06 | 38.38981 | -109.72410 | 35842 ft | 401 kts | 230° |
| 2026-04-25 02:07 | 38.36984 | -109.74919 | 36112 ft | 402 kts | 230° |
| 2026-04-25 02:07 | 38.35017 | -109.77385 | 36421 ft | 402 kts | 230° |
| 2026-04-25 02:07 | 38.33021 | -109.79886 | 36675 ft | 403 kts | 230° |
| 2026-04-25 02:07 | 38.31023 | -109.82389 | 36980 ft | 402 kts | 230° |
| 2026-04-25 02:08 | 38.29035 | -109.84874 | 37331 ft | 399 kts | 230° |
| 2026-04-25 02:08 | 38.27055 | -109.87347 | 37675 ft | 397 kts | 230° |
| 2026-04-25 02:08 | 38.25087 | -109.89804 | 38003 ft | 396 kts | 230° |
| 2026-04-25 02:08 | 38.23122 | -109.92257 | 38281 ft | 395 kts | 230° |
| 2026-04-25 02:09 | 38.21161 | -109.94703 | 38521 ft | 395 kts | 230° |
| 2026-04-25 02:09 | 38.19196 | -109.97155 | 38675 ft | 397 kts | 230° |
| 2026-04-25 02:09 | 38.17222 | -109.99615 | 38870 ft | 398 kts | 230° |
| 2026-04-25 02:09 | 38.15239 | -110.02080 | 39104 ft | 398 kts | 230° |
| 2026-04-25 02:10 | 38.13265 | -110.04533 | 39337 ft | 397 kts | 230° |
| 2026-04-25 02:10 | 38.11288 | -110.06990 | 39516 ft | 398 kts | 230° |
| 2026-04-25 02:10 | 38.09304 | -110.09455 | 39668 ft | 400 kts | 230° |
| 2026-04-25 02:10 | 38.07312 | -110.11927 | 39823 ft | 401 kts | 230° |
| 2026-04-25 02:11 | 38.05308 | -110.14412 | 39823 ft | 404 kts | 230° |
| 2026-04-25 02:11 | 38.01324 | -110.19340 | 39802 ft | 401 kts | 230° |
| 2026-04-25 02:12 | 37.97347 | -110.24250 | 39812 ft | 398 kts | 230° |
| 2026-04-25 02:12 | 37.93396 | -110.29126 | 39810 ft | 395 kts | 230° |
| 2026-04-25 02:13 | 37.89465 | -110.33969 | 39839 ft | 393 kts | 230° |
| 2026-04-25 02:13 | 37.85537 | -110.38803 | 39839 ft | 394 kts | 230° |
| 2026-04-25 02:14 | 37.81597 | -110.43648 | 39832 ft | 396 kts | 230° |
| 2026-04-25 02:14 | 37.77633 | -110.48507 | 39818 ft | 398 kts | 230° |
| 2026-04-25 02:15 | 37.73650 | -110.53376 | 39819 ft | 399 kts | 230° |
| 2026-04-25 02:15 | 37.69654 | -110.58263 | 39829 ft | 400 kts | 230° |
| 2026-04-25 02:16 | 37.65650 | -110.63149 | 39805 ft | 401 kts | 230° |
| 2026-04-25 02:16 | 37.61642 | -110.68032 | 39809 ft | 400 kts | 230° |
| 2026-04-25 02:17 | 37.57658 | -110.72877 | 39805 ft | 400 kts | 230° |
| 2026-04-25 02:17 | 37.53649 | -110.77745 | 39800 ft | 400 kts | 230° |
| 2026-04-25 02:18 | 37.49644 | -110.82602 | 39800 ft | 399 kts | 230° |
| 2026-04-25 02:18 | 37.45645 | -110.87442 | 39823 ft | 398 kts | 230° |
| 2026-04-25 02:19 | 37.41639 | -110.92285 | 39815 ft | 398 kts | 230° |
| 2026-04-25 02:19 | 37.37664 | -110.97083 | 39804 ft | 398 kts | 230° |
| 2026-04-25 02:20 | 37.33665 | -111.01902 | 39810 ft | 398 kts | 230° |
| 2026-04-25 02:20 | 37.29667 | -111.06712 | 39825 ft | 397 kts | 230° |
| 2026-04-25 02:21 | 37.25681 | -111.11500 | 39825 ft | 397 kts | 230° |
| 2026-04-25 02:21 | 37.21687 | -111.16291 | 39833 ft | 397 kts | 230° |
| 2026-04-25 02:22 | 37.17684 | -111.21086 | 39824 ft | 398 kts | 230° |
| 2026-04-25 02:22 | 37.13714 | -111.25838 | 39835 ft | 397 kts | 230° |
| 2026-04-25 02:23 | 37.09714 | -111.30612 | 39833 ft | 397 kts | 230° |
| 2026-04-25 02:23 | 37.05709 | -111.35385 | 39825 ft | 396 kts | 230° |
| 2026-04-25 02:24 | 37.01717 | -111.40134 | 39823 ft | 396 kts | 230° |
| 2026-04-25 02:24 | 36.97718 | -111.44888 | 39824 ft | 396 kts | 230° |
| 2026-04-25 02:25 | 36.93711 | -111.49644 | 39816 ft | 397 kts | 230° |
| 2026-04-25 02:25 | 36.89734 | -111.54356 | 39822 ft | 396 kts | 230° |
| 2026-04-25 02:26 | 36.85743 | -111.59093 | 39832 ft | 395 kts | 230° |
| 2026-04-25 02:26 | 36.81749 | -111.63817 | 39831 ft | 395 kts | 230° |
| 2026-04-25 02:27 | 36.77753 | -111.68529 | 39833 ft | 395 kts | 230° |
| 2026-04-25 02:27 | 36.73783 | -111.73205 | 39840 ft | 394 kts | 230° |
| 2026-04-25 02:28 | 36.69775 | -111.77918 | 39852 ft | 393 kts | 230° |
| 2026-04-25 02:28 | 36.65822 | -111.82561 | 39863 ft | 393 kts | 230° |
| 2026-04-25 02:29 | 36.61847 | -111.87222 | 39874 ft | 393 kts | 230° |
| 2026-04-25 02:29 | 36.57869 | -111.91880 | 39887 ft | 392 kts | 230° |
| 2026-04-25 02:30 | 36.53890 | -111.96532 | 39894 ft | 392 kts | 230° |
| 2026-04-25 02:30 | 36.49911 | -112.01175 | 39905 ft | 391 kts | 230° |
| 2026-04-25 02:31 | 36.45946 | -112.05795 | 39906 ft | 390 kts | 230° |
| 2026-04-25 02:31 | 36.41978 | -112.10407 | 39917 ft | 391 kts | 229° |
| 2026-04-25 02:32 | 36.38027 | -112.14993 | 39923 ft | 391 kts | 229° |
| 2026-04-25 02:32 | 36.34043 | -112.19614 | 39938 ft | 393 kts | 229° |
| 2026-04-25 02:33 | 36.30043 | -112.24247 | 39948 ft | 394 kts | 229° |
| 2026-04-25 02:33 | 36.26034 | -112.28885 | 39956 ft | 395 kts | 230° |
| 2026-04-25 02:34 | 36.22011 | -112.33538 | 39963 ft | 395 kts | 229° |
| 2026-04-25 02:34 | 36.17996 | -112.38148 | 39961 ft | 392 kts | 229° |
| 2026-04-25 02:35 | 36.14001 | -112.42762 | 39956 ft | 393 kts | 229° |
| 2026-04-25 02:35 | 36.10013 | -112.47353 | 39952 ft | 394 kts | 229° |
| 2026-04-25 02:36 | 36.05990 | -112.51973 | 39955 ft | 394 kts | 229° |
| 2026-04-25 02:36 | 36.01968 | -112.56585 | 39951 ft | 394 kts | 229° |
| 2026-04-25 02:37 | 35.97938 | -112.61199 | 39950 ft | 394 kts | 229° |
| 2026-04-25 02:37 | 35.93923 | -112.65792 | 39953 ft | 394 kts | 229° |
| 2026-04-25 02:38 | 35.89903 | -112.70382 | 39961 ft | 393 kts | 229° |
| 2026-04-25 02:38 | 35.85888 | -112.74960 | 39962 ft | 392 kts | 229° |
| 2026-04-25 02:39 | 35.81879 | -112.79526 | 39963 ft | 392 kts | 229° |
| 2026-04-25 02:39 | 35.77895 | -112.84056 | 39963 ft | 392 kts | 229° |
| 2026-04-25 02:40 | 35.73888 | -112.88604 | 39967 ft | 392 kts | 229° |
| 2026-04-25 02:40 | 35.69878 | -112.93151 | 39959 ft | 392 kts | 229° |
| 2026-04-25 02:41 | 35.65859 | -112.97701 | 39957 ft | 392 kts | 229° |
| 2026-04-25 02:41 | 35.61845 | -113.02238 | 39957 ft | 392 kts | 229° |
| 2026-04-25 02:42 | 35.57818 | -113.06784 | 39946 ft | 393 kts | 229° |
| 2026-04-25 02:42 | 35.53792 | -113.11322 | 39932 ft | 393 kts | 229° |
| 2026-04-25 02:43 | 35.49796 | -113.15821 | 39932 ft | 392 kts | 229° |
| 2026-04-25 02:43 | 35.45832 | -113.20444 | 39924 ft | 387 kts | 234° |
| 2026-04-25 02:44 | 35.42389 | -113.25439 | 39924 ft | 386 kts | 236° |
| 2026-04-25 02:44 | 35.38961 | -113.30504 | 39918 ft | 386 kts | 236° |
| 2026-04-25 02:45 | 35.35512 | -113.35553 | 39902 ft | 387 kts | 236° |
| 2026-04-25 02:45 | 35.32039 | -113.40599 | 39897 ft | 387 kts | 236° |
| 2026-04-25 02:46 | 35.29145 | -113.44788 | 39885 ft | 388 kts | 236° |
| 2026-04-25 02:46 | 35.25659 | -113.49821 | 39890 ft | 388 kts | 236° |
| 2026-04-25 02:47 | 35.22166 | -113.54858 | 39884 ft | 388 kts | 236° |
| 2026-04-25 02:47 | 35.18693 | -113.59859 | 39867 ft | 388 kts | 236° |
| 2026-04-25 02:48 | 35.15192 | -113.64880 | 39859 ft | 388 kts | 236° |
| 2026-04-25 02:48 | 35.11700 | -113.69887 | 39865 ft | 387 kts | 236° |
| 2026-04-25 02:49 | 35.08210 | -113.74891 | 39872 ft | 386 kts | 236° |
| 2026-04-25 02:49 | 35.04727 | -113.79873 | 39867 ft | 386 kts | 235° |
| 2026-04-25 02:50 | 35.01246 | -113.84850 | 39854 ft | 384 kts | 236° |
| 2026-04-25 02:50 | 34.97774 | -113.89807 | 39856 ft | 384 kts | 236° |
| 2026-04-25 02:51 | 34.94306 | -113.94753 | 39859 ft | 383 kts | 236° |
| 2026-04-25 02:51 | 34.90831 | -113.99703 | 39825 ft | 385 kts | 236° |
| 2026-04-25 02:52 | 34.87344 | -114.04658 | 39804 ft | 385 kts | 235° |
| 2026-04-25 02:52 | 34.83855 | -114.09609 | 39791 ft | 385 kts | 235° |
| 2026-04-25 02:53 | 34.80368 | -114.14553 | 39776 ft | 384 kts | 236° |
| 2026-04-25 02:53 | 34.76882 | -114.19486 | 39769 ft | 384 kts | 235° |
| 2026-04-25 02:54 | 34.73404 | -114.24401 | 39758 ft | 383 kts | 236° |
| 2026-04-25 02:54 | 34.69956 | -114.29279 | 39758 ft | 382 kts | 236° |
| 2026-04-25 02:55 | 34.66486 | -114.34165 | 39750 ft | 381 kts | 236° |
| 2026-04-25 02:55 | 34.63017 | -114.39045 | 39745 ft | 381 kts | 236° |
| 2026-04-25 02:56 | 34.59520 | -114.43895 | 39737 ft | 381 kts | 235° |
| 2026-04-25 02:56 | 34.56018 | -114.48724 | 39734 ft | 381 kts | 235° |
| 2026-04-25 02:57 | 34.52514 | -114.53539 | 39733 ft | 380 kts | 235° |
| 2026-04-25 02:57 | 34.49043 | -114.58321 | 39735 ft | 381 kts | 235° |
| 2026-04-25 02:58 | 34.45537 | -114.63144 | 39742 ft | 381 kts | 235° |
| 2026-04-25 02:58 | 34.42020 | -114.67974 | 39740 ft | 382 kts | 235° |
| 2026-04-25 02:59 | 34.38500 | -114.72804 | 39740 ft | 382 kts | 235° |
| 2026-04-25 02:59 | 34.34949 | -114.77620 | 39749 ft | 383 kts | 236° |
| 2026-04-25 03:00 | 34.31428 | -114.82443 | 39757 ft | 382 kts | 235° |
| 2026-04-25 03:00 | 34.27918 | -114.87271 | 39771 ft | 381 kts | 235° |
| 2026-04-25 03:01 | 34.24393 | -114.92091 | 39762 ft | 383 kts | 235° |
| 2026-04-25 03:01 | 34.20862 | -114.96903 | 39755 ft | 383 kts | 235° |
| 2026-04-25 03:02 | 34.17326 | -115.01713 | 39755 ft | 383 kts | 235° |
| 2026-04-25 03:02 | 34.13789 | -115.06521 | 39765 ft | 382 kts | 235° |
| 2026-04-25 03:03 | 34.10254 | -115.11316 | 39775 ft | 382 kts | 235° |
| 2026-04-25 03:03 | 34.06726 | -115.16097 | 39785 ft | 381 kts | 235° |
| 2026-04-25 03:04 | 34.03222 | -115.20838 | 39786 ft | 381 kts | 235° |
| 2026-04-25 03:04 | 33.99688 | -115.25615 | 39786 ft | 382 kts | 234° |
| 2026-04-25 03:05 | 33.94400 | -115.32773 | 39788 ft | 380 kts | 235° |
| 2026-04-25 03:05 | 33.90898 | -115.37520 | 39799 ft | 380 kts | 235° |
| 2026-04-25 03:06 | 33.87383 | -115.42276 | 39794 ft | 379 kts | 235° |
| 2026-04-25 03:06 | 33.83878 | -115.47011 | 39802 ft | 379 kts | 235° |
| 2026-04-25 03:07 | 33.82122 | -115.49381 | 39559 ft | 382 kts | 235° |
| 2026-04-25 03:07 | 33.80350 | -115.51773 | 39065 ft | 380 kts | 235° |
| 2026-04-25 03:07 | 33.78598 | -115.54130 | 38394 ft | 378 kts | 235° |
| 2026-04-25 03:07 | 33.76850 | -115.56486 | 37688 ft | 376 kts | 236° |
| 2026-04-25 03:08 | 33.75108 | -115.58836 | 36959 ft | 375 kts | 235° |
| 2026-04-25 03:08 | 33.73372 | -115.61169 | 36214 ft | 374 kts | 234° |
| 2026-04-25 03:08 | 33.71655 | -115.63472 | 35396 ft | 375 kts | 234° |
| 2026-04-25 03:08 | 33.69903 | -115.65815 | 34601 ft | 375 kts | 234° |
| 2026-04-25 03:09 | 33.68145 | -115.68142 | 33714 ft | 377 kts | 233° |
| 2026-04-25 03:09 | 33.66374 | -115.70479 | 32782 ft | 380 kts | 233° |
| 2026-04-25 03:09 | 33.64588 | -115.72838 | 31815 ft | 384 kts | 233° |
| 2026-04-25 03:09 | 33.62801 | -115.75195 | 31133 ft | 380 kts | 233° |
| 2026-04-25 03:10 | 33.61112 | -115.77603 | 30425 ft | 374 kts | 238° |
| 2026-04-25 03:10 | 33.59625 | -115.80138 | 29748 ft | 369 kts | 240° |
| 2026-04-25 03:10 | 33.58208 | -115.82690 | 29068 ft | 366 kts | 240° |
| 2026-04-25 03:10 | 33.56804 | -115.85218 | 28366 ft | 363 kts | 240° |
| 2026-04-25 03:11 | 33.55392 | -115.87716 | 27675 ft | 361 kts | 240° |
| 2026-04-25 03:11 | 33.53973 | -115.90189 | 26986 ft | 359 kts | 239° |
| 2026-04-25 03:11 | 33.52545 | -115.92660 | 26290 ft | 362 kts | 239° |
| 2026-04-25 03:11 | 33.51102 | -115.95153 | 25761 ft | 366 kts | 239° |
| 2026-04-25 03:12 | 33.49646 | -115.97666 | 25500 ft | 369 kts | 239° |
| 2026-04-25 03:12 | 33.48196 | -116.00170 | 25257 ft | 372 kts | 239° |
| 2026-04-25 03:12 | 33.46701 | -116.02747 | 24993 ft | 370 kts | 239° |
| 2026-04-25 03:12 | 33.45257 | -116.05234 | 24762 ft | 368 kts | 239° |
| 2026-04-25 03:13 | 33.43798 | -116.07745 | 24508 ft | 366 kts | 239° |
| 2026-04-25 03:13 | 33.42345 | -116.10245 | 24262 ft | 365 kts | 239° |
| 2026-04-25 03:13 | 33.40893 | -116.12743 | 24021 ft | 365 kts | 239° |
| 2026-04-25 03:13 | 33.39443 | -116.15235 | 23779 ft | 365 kts | 239° |
| 2026-04-25 03:14 | 33.37976 | -116.17703 | 23553 ft | 364 kts | 237° |
| 2026-04-25 03:14 | 33.36506 | -116.20175 | 23294 ft | 365 kts | 239° |
| 2026-04-25 03:14 | 33.35074 | -116.22680 | 23072 ft | 365 kts | 239° |
| 2026-04-25 03:14 | 33.33368 | -116.24974 | 22732 ft | 375 kts | 225° |
| 2026-04-25 03:15 | 33.31136 | -116.26679 | 22085 ft | 385 kts | 213° |
| 2026-04-25 03:15 | 33.28738 | -116.28097 | 21450 ft | 382 kts | 212° |
| 2026-04-25 03:15 | 33.26353 | -116.29450 | 20796 ft | 376 kts | 211° |
| 2026-04-25 03:15 | 33.24012 | -116.30774 | 20173 ft | 369 kts | 211° |
| 2026-04-25 03:16 | 33.21747 | -116.32067 | 19559 ft | 362 kts | 212° |
| 2026-04-25 03:16 | 33.19491 | -116.33371 | 18951 ft | 359 kts | 212° |
| 2026-04-25 03:16 | 33.17256 | -116.34672 | 18347 ft | 356 kts | 212° |
| 2026-04-25 03:16 | 33.15044 | -116.35962 | 17738 ft | 352 kts | 212° |
| 2026-04-25 03:17 | 33.12865 | -116.37268 | 17152 ft | 348 kts | 212° |
| 2026-04-25 03:17 | 33.10680 | -116.38504 | 16581 ft | 345 kts | 211° |
| 2026-04-25 03:17 | 33.08522 | -116.39755 | 15996 ft | 344 kts | 211° |
| 2026-04-25 03:17 | 33.06371 | -116.41019 | 15411 ft | 344 kts | 211° |
| 2026-04-25 03:18 | 33.04226 | -116.42276 | 14804 ft | 341 kts | 211° |
| 2026-04-25 03:18 | 33.02092 | -116.43521 | 14242 ft | 340 kts | 210° |
| 2026-04-25 03:18 | 33.00048 | -116.44840 | 13723 ft | 336 kts | 218° |
| 2026-04-25 03:18 | 32.98237 | -116.46569 | 13313 ft | 330 kts | 224° |
| 2026-04-25 03:19 | 32.96511 | -116.48360 | 12902 ft | 329 kts | 225° |
| 2026-04-25 03:19 | 32.94797 | -116.50159 | 12507 ft | 328 kts | 224° |
| 2026-04-25 03:19 | 32.93069 | -116.51943 | 12108 ft | 329 kts | 223° |
| 2026-04-25 03:19 | 32.91323 | -116.53728 | 11685 ft | 331 kts | 223° |
| 2026-04-25 03:20 | 32.89571 | -116.55504 | 11277 ft | 331 kts | 223° |
| 2026-04-25 03:20 | 32.87809 | -116.57281 | 10869 ft | 332 kts | 222° |
| 2026-04-25 03:20 | 32.86042 | -116.59063 | 10442 ft | 334 kts | 222° |
| 2026-04-25 03:20 | 32.84264 | -116.60853 | 10021 ft | 334 kts | 222° |
| 2026-04-25 03:21 | 32.82546 | -116.62580 | 9589 ft | 317 kts | 222° |
| 2026-04-25 03:21 | 32.80892 | -116.64242 | 9195 ft | 298 kts | 222° |
| 2026-04-25 03:21 | 32.79368 | -116.65776 | 8826 ft | 283 kts | 221° |
| 2026-04-25 03:21 | 32.77904 | -116.67253 | 8490 ft | 270 kts | 223° |
| 2026-04-25 03:22 | 32.76775 | -116.68946 | 8174 ft | 255 kts | 242° |
| 2026-04-25 03:22 | 32.75937 | -116.70765 | 7907 ft | 246 kts | 242° |
| 2026-04-25 03:22 | 32.75129 | -116.72516 | 7585 ft | 237 kts | 242° |
| 2026-04-25 03:22 | 32.74339 | -116.74205 | 7279 ft | 231 kts | 242° |
| 2026-04-25 03:23 | 32.73565 | -116.75858 | 6995 ft | 228 kts | 242° |
| 2026-04-25 03:23 | 32.72794 | -116.77493 | 6710 ft | 227 kts | 241° |
| 2026-04-25 03:23 | 32.72018 | -116.79132 | 6427 ft | 228 kts | 241° |
| 2026-04-25 03:23 | 32.71241 | -116.80772 | 6142 ft | 228 kts | 241° |
| 2026-04-25 03:24 | 32.70503 | -116.82439 | 5866 ft | 227 kts | 248° |
| 2026-04-25 03:24 | 32.69950 | -116.84186 | 5606 ft | 225 kts | 251° |
| 2026-04-25 03:24 | 32.69434 | -116.85911 | 5348 ft | 223 kts | 250° |
| 2026-04-25 03:24 | 32.68911 | -116.87628 | 5084 ft | 217 kts | 250° |
| 2026-04-25 03:25 | 32.68421 | -116.89286 | 4850 ft | 209 kts | 251° |
| 2026-04-25 03:25 | 32.67950 | -116.90908 | 4614 ft | 206 kts | 251° |
| 2026-04-25 03:25 | 32.67480 | -116.92517 | 4385 ft | 206 kts | 251° |
| 2026-04-25 03:25 | 32.67338 | -116.94186 | 4137 ft | 206 kts | 281° |
| 2026-04-25 03:26 | 32.67717 | -116.95813 | 3926 ft | 205 kts | 285° |
| 2026-04-25 03:26 | 32.68120 | -116.97451 | 3697 ft | 206 kts | 285° |
| 2026-04-25 03:26 | 32.68516 | -116.99065 | 3454 ft | 199 kts | 285° |
| 2026-04-25 03:26 | 32.68897 | -117.00611 | 3216 ft | 190 kts | 285° |
| 2026-04-25 03:27 | 32.69265 | -117.02099 | 2975 ft | 186 kts | 285° |
| 2026-04-25 03:27 | 32.69630 | -117.03562 | 2734 ft | 182 kts | 285° |
| 2026-04-25 03:27 | 32.69981 | -117.05001 | 2495 ft | 180 kts | 284° |
| 2026-04-25 03:27 | 32.70326 | -117.06424 | 2271 ft | 178 kts | 284° |
| 2026-04-25 03:28 | 32.70660 | -117.07811 | 2092 ft | 175 kts | 284° |
| 2026-04-25 03:28 | 32.70988 | -117.09165 | 1830 ft | 166 kts | 284° |
| 2026-04-25 03:28 | 32.71295 | -117.10435 | 1605 ft | 153 kts | 284° |
| 2026-04-25 03:28 | 32.71582 | -117.11621 | 1347 ft | 144 kts | 284° |
| 2026-04-25 03:29 | 32.71846 | -117.12716 | 1135 ft | 132 kts | 284° |
| 2026-04-25 03:29 | 32.72095 | -117.13747 | 942 ft | 129 kts | 285° |
| 2026-04-25 03:29 | 32.72368 | -117.14767 | 813 ft | 129 kts | 286° |
| 2026-04-25 03:29 | 32.72606 | -117.15794 | 665 ft | 129 kts | 283° |
| 2026-04-25 03:30 | 32.72773 | -117.16483 | 476 ft | 134 kts | 283° |
| 2026-04-25 03:30 | 32.73102 | -117.17913 | 90 ft | 133 kts | 285° |
| 2026-04-25 03:30 | 32.73341 | -117.18879 | 26 ft | 110 kts | 285° |
| 2026-04-25 03:30 | 32.73461 | -117.19394 | 25 ft | 81 kts | 285° |
| 2026-04-25 03:31 | 32.73515 | -117.19816 | 28 ft | 15 kts | 241° |
| 2026-04-25 03:31 | 32.73463 | -117.19823 | 26 ft | 0 kts | 123° |
| 2026-04-25 03:31 | 32.73463 | -117.19822 | 26 ft | 0 kts | 123° |
| 2026-04-25 03:31 | 32.73462 | -117.19821 | 26 ft | 0 kts | 123° |
| 2026-04-25 03:32 | 32.73461 | -117.19818 | 26 ft | 1 kts | 123° |
| 2026-04-25 03:32 | 32.73452 | -117.19795 | 27 ft | 9 kts | 110° |
| 2026-04-25 03:32 | 32.73429 | -117.19695 | 25 ft | 15 kts | 106° |
| 2026-04-25 03:32 | 32.73397 | -117.19566 | 28 ft | 17 kts | 105° |
| 2026-04-25 03:33 | 32.73360 | -117.19417 | 30 ft | 21 kts | 105° |
| 2026-04-25 03:33 | 32.73317 | -117.19243 | 24 ft | 22 kts | 106° |
| 2026-04-25 03:33 | 32.73302 | -117.19175 | 25 ft | 1 kts | 96° |
| 2026-04-25 03:33 | 32.73306 | -117.19164 | 27 ft | 2 kts | 56° |
| 2026-04-25 03:34 | 32.73314 | -117.19160 | 23 ft | 0 kts | 16° |
| 2026-04-25 03:34 | 32.73328 | -117.19155 | 23 ft | 5 kts | 18° |
| 2026-04-25 03:34 | 32.73380 | -117.19127 | 25 ft | 14 kts | 28° |
| 2026-04-25 03:34 | 32.73470 | -117.19048 | 22 ft | 15 kts | 58° |
| 2026-04-25 03:35 | 32.73465 | -117.18942 | 22 ft | 10 kts | 107° |
| 2026-04-25 03:35 | 32.73454 | -117.18899 | 23 ft | 0 kts | 107° |
| 2026-04-25 03:35 | 32.73453 | -117.18897 | 21 ft | 1 kts | 107° |
| 2026-04-25 03:35 | 32.73444 | -117.18861 | 23 ft | 9 kts | 106° |
| 2026-04-25 03:36 | 32.73420 | -117.18762 | 21 ft | 16 kts | 106° |
| 2026-04-25 03:36 | 32.73391 | -117.18632 | 23 ft | 16 kts | 104° |
| 2026-04-25 03:36 | 32.73360 | -117.18506 | 27 ft | 16 kts | 109° |
| 2026-04-25 03:36 | 32.73329 | -117.18385 | 27 ft | 15 kts | 105° |
| 2026-04-25 03:37 | 32.73302 | -117.18268 | 27 ft | 14 kts | 105° |
| 2026-04-25 03:37 | 32.73277 | -117.18157 | 24 ft | 14 kts | 105° |
| 2026-04-25 03:37 | 32.73253 | -117.18050 | 24 ft | 13 kts | 105° |
| 2026-04-25 03:37 | 32.73260 | -117.17989 | 26 ft | 6 kts | 36° |
| 2026-04-25 03:38 | 32.73301 | -117.17971 | 26 ft | 6 kts | 20° |
| 2026-04-25 03:38 | 32.73343 | -117.17959 | 27 ft | 6 kts | 3° |
| 2026-04-25 03:38 | 32.73384 | -117.17952 | 28 ft | 6 kts | 29° |
| 2026-04-25 03:38 | 32.73414 | -117.17919 | 27 ft | 3 kts | 53° |
| 2026-04-25 03:39 | 32.73407 | -117.17905 | 27 ft | 0 kts | 150° |